Time;durP1;ratioP1;P1;durP2;ratioP2;P2;SDS_P1;SDS_P2;PMS_P1;PMS_P2;Temp;Humidity;BMP_temperature;BMP_pressure;BME280_temperature;BME280_humidity;BME280_pressure;Samples;Min_cycle;Max_cycle;Signal;HPM_P1;HPM_P2
2022/11/01 00:01:05;;;;;;;4.70;4.40;;;;;;;;;;5065365;28;20441;-79
2022/11/01 00:03:31;;;;;;;8.47;4.60;;;;;;;;;;5067461;28;20429;-80
2022/11/01 00:05:57;;;;;;;10.23;4.70;;;;;;;;;;5063839;28;20432;-79
2022/11/01 00:08:23;;;;;;;4.17;3.77;;;;;;;;;;5067220;28;20978;-81
2022/11/01 00:10:49;;;;;;;5.60;4.67;;;;;;;;;;5063522;28;20979;-81
2022/11/01 00:13:15;;;;;;;6.00;4.43;;;;;;;;;;5072580;28;20460;-80
2022/11/01 00:15:42;;;;;;;5.03;4.60;;;;;;;;;;5075462;28;20463;-81
2022/11/01 00:18:08;;;;;;;4.73;4.30;;;;;;;;;;5067542;28;20502;-80
2022/11/01 00:20:34;;;;;;;4.60;3.87;;;;;;;;;;5057161;28;20961;-81
2022/11/01 00:23:00;;;;;;;4.90;4.70;;;;;;;;;;5068138;28;20437;-80
2022/11/01 00:25:26;;;;;;;5.67;4.70;;;;;;;;;;5065606;28;20455;-80
2022/11/01 00:27:52;;;;;;;4.93;4.10;;;;;;;;;;5066686;28;20553;-80
2022/11/01 00:30:18;;;;;;;5.50;5.03;;;;;;;;;;5052538;28;21158;-80
2022/11/01 00:32:45;;;;;;;4.53;4.13;;;;;;;;;;5066525;28;20821;-80
2022/11/01 00:35:11;;;;;;;4.43;4.10;;;;;;;;;;5068255;28;20582;-80
2022/11/01 00:37:37;;;;;;;5.10;4.50;;;;;;;;;;5067614;28;21070;-80
2022/11/01 00:40:03;;;;;;;4.40;4.23;;;;;;;;;;5045522;28;20438;-81
2022/11/01 00:42:29;;;;;;;6.77;4.57;;;;;;;;;;5049325;28;20952;-80
2022/11/01 00:44:55;;;;;;;4.33;4.10;;;;;;;;;;5054039;28;20531;-79
2022/11/01 00:47:21;;;;;;;5.00;4.60;;;;;;;;;;5047053;28;20851;-79
2022/11/01 00:49:47;;;;;;;7.93;4.70;;;;;;;;;;5064100;28;20451;-80
2022/11/01 00:52:14;;;;;;;8.97;4.40;;;;;;;;;;5047228;28;21104;-79
2022/11/01 00:54:40;;;;;;;7.53;5.13;;;;;;;;;;5064200;28;20443;-81
2022/11/01 00:57:06;;;;;;;5.80;5.20;;;;;;;;;;5066311;28;20860;-80
2022/11/01 00:59:32;;;;;;;6.00;4.50;;;;;;;;;;5051088;28;20941;-79
2022/11/01 01:01:58;;;;;;;5.83;4.60;;;;;;;;;;5066581;28;20401;-80
2022/11/01 01:04:24;;;;;;;7.67;5.20;;;;;;;;;;5045066;28;20433;-80
2022/11/01 01:06:50;;;;;;;5.13;4.83;;;;;;;;;;5046455;28;20467;-80
2022/11/01 01:09:16;;;;;;;4.80;4.40;;;;;;;;;;5064637;28;20554;-81
2022/11/01 01:11:42;;;;;;;5.13;4.63;;;;;;;;;;5066148;28;20427;-81
2022/11/01 01:14:09;;;;;;;5.20;4.67;;;;;;;;;;5063654;28;20694;-80
2022/11/01 01:16:35;;;;;;;7.00;4.80;;;;;;;;;;5066432;28;20413;-81
2022/11/01 01:19:01;;;;;;;4.83;4.40;;;;;;;;;;5044499;28;20444;-81
2022/11/01 01:21:27;;;;;;;7.37;4.60;;;;;;;;;;5046471;28;20502;-81
2022/11/01 01:23:53;;;;;;;6.63;4.37;;;;;;;;;;5063598;28;20425;-82
2022/11/01 01:26:20;;;;;;;6.23;5.60;;;;;;;;;;5066274;28;20455;-82
2022/11/01 01:28:46;;;;;;;5.20;4.50;;;;;;;;;;5046419;28;20457;-80
2022/11/01 01:31:12;;;;;;;4.90;4.50;;;;;;;;;;5063347;28;20798;-79
2022/11/01 01:33:38;;;;;;;5.07;4.60;;;;;;;;;;5046369;28;20461;-80
2022/11/01 01:36:05;;;;;;;6.80;4.50;;;;;;;;;;5063503;28;20440;-80
2022/11/01 01:38:31;;;;;;;6.20;4.10;;;;;;;;;;5066060;28;20425;-81
2022/11/01 01:41:54;;;;;;;4.63;4.00;;;;;;;;;;5062351;28;20880;-83
2022/11/01 01:43:44;;;;;;;5.37;4.83;;;;;;;;;;5025722;28;20422;-81
2022/11/01 01:46:10;;;;;;;7.70;4.30;;;;;;;;;;5063124;28;20832;-81
2022/11/01 01:48:36;;;;;;;4.77;4.40;;;;;;;;;;5045892;28;20741;-80
2022/11/01 01:51:04;;;;;;;6.03;3.90;;;;;;;;;;5063195;28;20435;-81
2022/11/01 01:53:30;;;;;;;4.37;4.00;;;;;;;;;;5065632;28;20460;-80
2022/11/01 01:56:01;;;;;;;4.27;3.97;;;;;;;;;;5062267;28;20443;-81
2022/11/01 01:58:29;;;;;;;6.77;4.37;;;;;;;;;;5026186;28;20454;-80
2022/11/01 02:00:55;;;;;;;4.93;4.63;;;;;;;;;;5063131;28;20498;-80
2022/11/01 02:03:24;;;;;;;7.07;4.90;;;;;;;;;;5065526;28;20843;-81
2022/11/01 02:05:50;;;;;;;4.50;4.20;;;;;;;;;;5061038;28;20441;-81
2022/11/01 02:08:25;;;;;;;11.77;5.50;;;;;;;;;;5067070;28;20447;-81
2022/11/01 02:10:51;;;;;;;4.57;4.27;;;;;;;;;;5076928;28;21067;-80
2022/11/01 02:13:17;;;;;;;5.83;5.30;;;;;;;;;;5068577;28;20467;-80
2022/11/01 02:15:50;;;;;;;6.97;4.40;;;;;;;;;;5060705;28;20464;-81
2022/11/01 02:18:31;;;;;;;4.50;4.30;;;;;;;;;;5045738;28;20592;-80
2022/11/01 02:21:27;;;;;;;4.43;3.97;;;;;;;;;;5045258;28;20436;-80
2022/11/01 02:24:06;;;;;;;4.37;4.10;;;;;;;;;;5044217;28;20437;-80
2022/11/01 02:26:32;;;;;;;4.47;4.10;;;;;;;;;;5065607;28;20408;-81
2022/11/01 02:29:01;;;;;;;4.07;3.87;;;;;;;;;;5063579;28;20424;-81
2022/11/01 02:31:27;;;;;;;10.43;5.00;;;;;;;;;;5065897;28;20405;-81
2022/11/01 02:33:59;;;;;;;4.70;4.20;;;;;;;;;;5025699;28;20453;-79
2022/11/01 02:36:25;;;;;;;5.30;4.20;;;;;;;;;;5045732;28;20406;-80
2022/11/01 02:38:54;;;;;;;5.13;4.67;;;;;;;;;;5063026;28;20502;-80
2022/11/01 02:41:26;;;;;;;4.77;4.43;;;;;;;;;;5065892;28;20401;-80
2022/11/01 02:43:54;;;;;;;5.07;4.60;;;;;;;;;;5048276;28;20409;-77
2022/11/01 02:49:07;;;;;;;4.20;4.00;;;;;;;;;;5054416;28;20470;-80
2022/11/01 02:51:35;;;;;;;4.30;4.20;;;;;;;;;;5049431;28;20441;-81
2022/11/01 02:54:09;;;;;;;4.67;4.33;;;;;;;;;;5066649;28;20538;-80
2022/11/01 02:56:36;;;;;;;5.07;4.67;;;;;;;;;;5068839;28;20466;-81
2022/11/01 02:59:02;;;;;;;5.50;4.20;;;;;;;;;;5049148;28;20460;-81
2022/11/01 03:01:31;;;;;;;8.03;5.07;;;;;;;;;;5069120;28;20409;-80
2022/11/01 03:03:58;;;;;;;4.97;4.57;;;;;;;;;;5048185;28;20430;-80
2022/11/01 03:06:27;;;;;;;4.33;4.03;;;;;;;;;;5068807;28;20448;-79
2022/11/01 03:08:58;;;;;;;7.50;4.60;;;;;;;;;;5047586;28;20457;-80
2022/11/01 03:11:27;;;;;;;6.37;4.50;;;;;;;;;;5068917;28;20815;-80
2022/11/01 03:14:32;;;;;;;5.17;4.83;;;;;;;;;;5066472;28;20444;-81
2022/11/01 03:17:16;;;;;;;4.63;4.33;;;;;;;;;;4986625;28;20475;-81
2022/11/01 03:19:42;;;;;;;7.60;5.07;;;;;;;;;;4985859;28;20432;-82
2022/11/01 03:22:27;;;;;;;12.23;4.97;;;;;;;;;;5035090;28;20440;-80
2022/11/01 03:24:59;;;;;;;4.87;4.30;;;;;;;;;;5066765;28;20471;-81
2022/11/01 03:27:31;;;;;;;4.67;4.27;;;;;;;;;;5068126;28;20665;-80
2022/11/01 03:30:05;;;;;;;4.33;4.00;;;;;;;;;;5066625;28;20427;-81
2022/11/01 03:32:33;;;;;;;5.30;4.63;;;;;;;;;;5048463;28;20551;-80
2022/11/01 03:34:59;;;;;;;6.03;4.97;;;;;;;;;;5046527;28;20441;-79
2022/11/01 03:37:27;;;;;;;4.70;4.50;;;;;;;;;;5043393;28;20533;-80
2022/11/01 03:39:54;;;;;;;7.70;4.40;;;;;;;;;;5050567;28;20560;-80
2022/11/01 03:42:21;;;;;;;4.00;3.80;;;;;;;;;;5068118;28;20889;-81
2022/11/01 03:44:50;;;;;;;5.60;4.20;;;;;;;;;;5054970;28;20441;-80
2022/11/01 03:47:16;;;;;;;6.00;5.17;;;;;;;;;;5048441;28;20466;-81
2022/11/01 03:49:42;;;;;;;4.60;4.30;;;;;;;;;;5065959;28;20512;-80
2022/11/01 03:52:08;;;;;;;4.30;4.00;;;;;;;;;;5068050;28;20511;-79
2022/11/01 03:54:34;;;;;;;4.50;4.13;;;;;;;;;;5065418;28;20441;-80
2022/11/01 03:57:00;;;;;;;7.20;4.97;;;;;;;;;;5068404;28;20401;-81
2022/11/01 03:59:26;;;;;;;4.87;3.87;;;;;;;;;;5051476;28;20957;-81
2022/11/01 04:01:52;;;;;;;4.27;4.07;;;;;;;;;;5063300;28;20947;-79
2022/11/01 04:04:18;;;;;;;4.73;3.93;;;;;;;;;;5054411;28;20459;-79
2022/11/01 04:06:44;;;;;;;4.70;4.40;;;;;;;;;;5069478;28;20456;-79
2022/11/01 04:09:10;;;;;;;3.63;3.50;;;;;;;;;;5067487;28;20463;-80
2022/11/01 04:11:36;;;;;;;4.57;4.17;;;;;;;;;;5057545;28;20477;-80
2022/11/01 04:22:16;;;;;;;4.90;4.50;;;;;;;;;;5067737;28;20817;-80
2022/11/01 04:24:42;;;;;;;4.03;3.83;;;;;;;;;;5028567;28;20496;-80
2022/11/01 04:27:08;;;;;;;5.23;4.83;;;;;;;;;;5059617;28;20838;-80
2022/11/01 04:29:34;;;;;;;5.40;4.90;;;;;;;;;;5065570;28;20434;-82
2022/11/01 04:32:01;;;;;;;3.97;3.57;;;;;;;;;;5066725;28;20479;-81
2022/11/01 04:34:41;;;;;;;7.03;3.78;;;;;;;;;;4878583;28;10000450;-80
2022/11/01 04:37:07;;;;;;;4.47;4.07;;;;;;;;;;5057555;28;20389;-81
2022/11/01 04:39:33;;;;;;;4.77;4.10;;;;;;;;;;5069198;28;20932;-80
2022/11/01 04:41:59;;;;;;;5.00;4.70;;;;;;;;;;5067014;28;20447;-80
2022/11/01 04:44:25;;;;;;;5.07;4.30;;;;;;;;;;5060715;28;20464;-81
2022/11/01 04:46:51;;;;;;;4.20;4.00;;;;;;;;;;5073221;28;20420;-81
2022/11/01 04:49:17;;;;;;;5.83;3.73;;;;;;;;;;5062094;28;20440;-80
2022/11/01 04:51:43;;;;;;;4.20;4.00;;;;;;;;;;5051460;28;20440;-79
2022/11/01 04:54:09;;;;;;;4.83;4.00;;;;;;;;;;5064949;28;20896;-81
2022/11/01 04:56:35;;;;;;;4.70;4.17;;;;;;;;;;5043346;28;20500;-81
2022/11/01 04:59:01;;;;;;;4.50;3.87;;;;;;;;;;5059505;28;20884;-79
2022/11/01 05:01:27;;;;;;;3.50;3.40;;;;;;;;;;5058746;28;20684;-81
2022/11/01 05:03:54;;;;;;;3.80;3.50;;;;;;;;;;5057489;28;20425;-81
2022/11/01 05:06:20;;;;;;;4.20;3.93;;;;;;;;;;5062745;28;20539;-79
2022/11/01 05:08:46;;;;;;;4.50;3.70;;;;;;;;;;5065732;28;20857;-82
2022/11/01 05:11:12;;;;;;;5.90;3.77;;;;;;;;;;5059540;28;20472;-81
2022/11/01 05:13:38;;;;;;;3.80;3.60;;;;;;;;;;5051492;28;20874;-79
2022/11/01 05:16:04;;;;;;;5.10;4.00;;;;;;;;;;5061851;28;20499;-82
2022/11/01 05:18:30;;;;;;;4.17;3.87;;;;;;;;;;5068469;28;20929;-82
2022/11/01 05:20:57;;;;;;;3.37;3.20;;;;;;;;;;5071731;28;20458;-80
2022/11/01 05:23:23;;;;;;;3.60;3.50;;;;;;;;;;5057050;28;21187;-82
2022/11/01 05:25:49;;;;;;;4.07;3.77;;;;;;;;;;5071971;28;20439;-80
2022/11/01 05:28:15;;;;;;;3.33;3.20;;;;;;;;;;5070610;28;20455;-82
2022/11/01 05:30:42;;;;;;;4.57;4.00;;;;;;;;;;5072257;28;20490;-82
2022/11/01 05:33:09;;;;;;;3.40;3.10;;;;;;;;;;5054587;28;20492;-79
2022/11/01 05:35:36;;;;;;;5.87;5.37;;;;;;;;;;5068295;28;20440;-80
2022/11/01 05:38:02;;;;;;;4.00;3.80;;;;;;;;;;5078186;28;20437;-80
2022/11/01 05:40:28;;;;;;;4.60;4.20;;;;;;;;;;5083548;28;20687;-80
2022/11/01 05:42:54;;;;;;;3.77;3.60;;;;;;;;;;5047703;28;20433;-81
2022/11/01 05:45:20;;;;;;;4.43;4.03;;;;;;;;;;5065583;28;20516;-80
2022/11/01 05:47:46;;;;;;;4.20;3.87;;;;;;;;;;5064358;28;20428;-80
2022/11/01 05:50:14;;;;;;;4.47;4.10;;;;;;;;;;5065613;28;20483;-81
2022/11/01 05:52:40;;;;;;;4.00;3.80;;;;;;;;;;5063969;28;20496;-80
2022/11/01 05:55:07;;;;;;;7.03;4.03;;;;;;;;;;5065513;28;20428;-80
2022/11/01 05:57:33;;;;;;;4.27;3.83;;;;;;;;;;5049067;28;20960;-81
2022/11/01 05:59:59;;;;;;;6.13;4.53;;;;;;;;;;5069355;28;20582;-81
2022/11/01 06:02:25;;;;;;;5.77;5.37;;;;;;;;;;5077552;28;20467;-80
2022/11/01 06:04:51;;;;;;;3.10;2.80;;;;;;;;;;5068034;28;20440;-81
2022/11/01 06:07:17;;;;;;;3.33;3.10;;;;;;;;;;5051533;28;20444;-81
2022/11/01 06:09:43;;;;;;;2.77;2.60;;;;;;;;;;5047525;28;20464;-80
2022/11/01 06:12:09;;;;;;;7.20;3.60;;;;;;;;;;5063537;28;20948;-81
2022/11/01 06:14:35;;;;;;;3.47;3.10;;;;;;;;;;5065233;28;20464;-79
2022/11/01 06:17:01;;;;;;;2.97;2.83;;;;;;;;;;5053442;28;20470;-81
2022/11/01 06:19:27;;;;;;;3.20;2.97;;;;;;;;;;5068464;28;20481;-81
2022/11/01 06:21:53;;;;;;;3.33;2.97;;;;;;;;;;5057172;28;20952;-80
2022/11/01 06:24:19;;;;;;;3.30;3.00;;;;;;;;;;5049331;28;20516;-80
2022/11/01 06:26:45;;;;;;;3.70;3.30;;;;;;;;;;5066875;28;20516;-80
2022/11/01 06:29:11;;;;;;;2.83;2.67;;;;;;;;;;5049419;28;20418;-81
2022/11/01 06:31:38;;;;;;;2.07;2.07;;;;;;;;;;5059329;28;20444;-81
2022/11/01 06:34:04;;;;;;;2.27;2.17;;;;;;;;;;5049127;28;20518;-80
2022/11/01 06:36:30;;;;;;;1.57;1.53;;;;;;;;;;5066605;28;20831;-81
2022/11/01 06:38:56;;;;;;;1.80;1.70;;;;;;;;;;5068791;28;20412;-81
2022/11/01 06:41:22;;;;;;;3.00;1.50;;;;;;;;;;5052054;28;20460;-82
2022/11/01 06:43:49;;;;;;;2.83;1.80;;;;;;;;;;5068794;28;20408;-80
2022/11/01 06:46:14;;;;;;;1.80;1.17;;;;;;;;;;5051320;28;20444;-81
2022/11/01 06:48:40;;;;;;;1.60;1.50;;;;;;;;;;5068972;28;20409;-80
2022/11/01 06:51:06;;;;;;;0.80;0.80;;;;;;;;;;5049765;28;20572;-79
2022/11/01 06:53:32;;;;;;;1.60;1.20;;;;;;;;;;5071307;28;20456;-80
2022/11/01 06:56:02;;;;;;;1.93;1.00;;;;;;;;;;5051246;28;20437;-79
2022/11/01 06:58:28;;;;;;;0.73;0.70;;;;;;;;;;5069384;28;20397;-80
2022/11/01 07:00:54;;;;;;;2.70;1.00;;;;;;;;;;5048238;28;20970;-78
2022/11/01 07:03:20;;;;;;;4.73;1.27;;;;;;;;;;5068674;28;20563;-80
2022/11/01 07:05:48;;;;;;;1.00;0.90;;;;;;;;;;5047922;28;20429;-79
2022/11/01 07:08:14;;;;;;;1.17;1.10;;;;;;;;;;5068675;28;20491;-80
2022/11/01 07:10:43;;;;;;;0.97;0.97;;;;;;;;;;5068322;28;20480;-81
2022/11/01 07:13:10;;;;;;;0.70;0.70;;;;;;;;;;5065837;28;20456;-80
2022/11/01 07:15:36;;;;;;;0.77;0.77;;;;;;;;;;5067789;28;20989;-80
2022/11/01 07:18:03;;;;;;;1.70;0.80;;;;;;;;;;5066445;28;20440;-81
2022/11/01 07:20:30;;;;;;;3.10;1.07;;;;;;;;;;5068462;28;20409;-81
2022/11/01 07:23:00;;;;;;;4.07;0.87;;;;;;;;;;5084663;28;20430;-81
2022/11/01 07:25:26;;;;;;;0.83;0.80;;;;;;;;;;5068014;28;20420;-79
2022/11/01 07:27:52;;;;;;;4.07;1.07;;;;;;;;;;5066452;28;20429;-80
2022/11/01 07:30:18;;;;;;;0.80;0.80;;;;;;;;;;5066450;28;20429;-80
2022/11/01 07:32:44;;;;;;;0.93;0.83;;;;;;;;;;5065733;28;20837;-80
2022/11/01 07:35:10;;;;;;;1.07;0.77;;;;;;;;;;5067562;28;20909;-82
2022/11/01 07:37:36;;;;;;;2.30;0.80;;;;;;;;;;5065576;28;20420;-80
2022/11/01 07:40:04;;;;;;;0.63;0.63;;;;;;;;;;5067709;28;20405;-80
2022/11/01 07:42:30;;;;;;;1.10;1.10;;;;;;;;;;5066337;28;20448;-80
2022/11/01 07:45:06;;;;;;;0.80;0.80;;;;;;;;;;4726195;28;10000568;-81
2022/11/01 07:47:32;;;;;;;0.70;0.70;;;;;;;;;;5050441;28;20366;-81
2022/11/01 07:49:58;;;;;;;1.50;0.60;;;;;;;;;;5053142;28;20977;-82
2022/11/01 07:52:24;;;;;;;2.93;1.57;;;;;;;;;;5068620;28;20453;-80
2022/11/01 07:54:50;;;;;;;1.20;1.20;;;;;;;;;;5067682;28;20455;-80
2022/11/01 07:57:16;;;;;;;0.80;0.80;;;;;;;;;;5062482;28;20946;-81
2022/11/01 07:59:43;;;;;;;0.80;0.80;;;;;;;;;;5067183;28;20451;-80
2022/11/01 08:02:09;;;;;;;1.13;0.70;;;;;;;;;;5055320;28;20477;-80
2022/11/01 08:04:35;;;;;;;16.53;0.87;;;;;;;;;;5056314;28;20410;-79
2022/11/01 08:07:01;;;;;;;0.50;0.50;;;;;;;;;;5065798;28;20448;-80
2022/11/01 08:09:27;;;;;;;5.40;1.43;;;;;;;;;;5053516;28;20438;-80
2022/11/01 08:11:53;;;;;;;0.80;0.80;;;;;;;;;;5073800;28;20448;-81
2022/11/01 08:14:19;;;;;;;0.60;0.60;;;;;;;;;;5046765;28;20470;-81
2022/11/01 08:16:48;;;;;;;0.70;0.70;;;;;;;;;;5061917;28;20574;-80
2022/11/01 08:19:14;;;;;;;2.53;0.90;;;;;;;;;;5046880;28;20468;-80
2022/11/01 08:21:40;;;;;;;0.90;0.90;;;;;;;;;;5065032;28;20799;-80
2022/11/01 08:24:07;;;;;;;2.53;1.20;;;;;;;;;;5066482;28;20550;-80
2022/11/01 08:26:32;;;;;;;0.87;0.87;;;;;;;;;;5075196;28;20957;-81
2022/11/01 08:28:59;;;;;;;0.60;0.60;;;;;;;;;;5067229;28;20428;-79
2022/11/01 08:31:25;;;;;;;5.30;1.00;;;;;;;;;;5055659;28;21116;-81
2022/11/01 08:33:51;;;;;;;3.00;0.70;;;;;;;;;;5067548;28;20471;-80
2022/11/01 08:36:17;;;;;;;1.10;0.70;;;;;;;;;;5071365;28;20428;-81
2022/11/01 08:38:43;;;;;;;0.60;0.60;;;;;;;;;;5066985;28;20427;-80
2022/11/01 08:41:09;;;;;;;2.47;1.30;;;;;;;;;;5056052;28;20977;-80
2022/11/01 08:43:35;;;;;;;4.30;0.90;;;;;;;;;;5046683;28;20452;-80
2022/11/01 08:46:01;;;;;;;1.03;0.93;;;;;;;;;;5064507;28;20437;-80
2022/11/01 08:48:27;;;;;;;1.33;0.80;;;;;;;;;;5046744;28;20429;-80
2022/11/01 08:50:53;;;;;;;1.40;1.30;;;;;;;;;;5054613;28;20434;-81
2022/11/01 08:53:19;;;;;;;1.53;0.87;;;;;;;;;;5065208;28;20489;-80
2022/11/01 08:55:45;;;;;;;0.90;0.90;;;;;;;;;;5053001;28;20456;-80
2022/11/01 08:58:11;;;;;;;3.23;1.90;;;;;;;;;;5052805;28;20446;-80
2022/11/01 09:00:37;;;;;;;2.10;1.00;;;;;;;;;;5057220;28;20898;-80
2022/11/01 09:03:03;;;;;;;3.80;1.20;;;;;;;;;;5045478;28;20402;-80
2022/11/01 09:05:30;;;;;;;1.43;1.33;;;;;;;;;;5063659;28;20436;-80
2022/11/01 09:08:00;;;;;;;3.80;1.50;;;;;;;;;;5065692;28;20405;-81
2022/11/01 09:10:27;;;;;;;3.40;1.33;;;;;;;;;;5049664;28;20448;-81
2022/11/01 09:12:53;;;;;;;4.27;1.67;;;;;;;;;;5065512;28;21041;-81
2022/11/01 09:15:19;;;;;;;2.80;1.20;;;;;;;;;;5057515;28;20799;-80
2022/11/01 09:17:45;;;;;;;4.83;1.17;;;;;;;;;;5055384;28;20429;-81
2022/11/01 09:20:11;;;;;;;1.90;1.00;;;;;;;;;;5048256;28;21027;-81
2022/11/01 09:22:37;;;;;;;4.23;1.27;;;;;;;;;;5065514;28;20736;-80
2022/11/01 09:25:04;;;;;;;4.53;1.50;;;;;;;;;;5050389;28;20586;-81
2022/11/01 09:27:30;;;;;;;2.93;1.33;;;;;;;;;;5086084;28;20389;-80
2022/11/01 09:29:56;;;;;;;6.37;1.83;;;;;;;;;;5064142;28;20425;-80
2022/11/01 09:32:22;;;;;;;2.83;1.47;;;;;;;;;;5065786;28;20440;-81
2022/11/01 09:34:48;;;;;;;5.60;2.87;;;;;;;;;;5044409;28;20461;-81
2022/11/01 09:37:15;;;;;;;2.67;1.20;;;;;;;;;;5065463;28;20436;-80
2022/11/01 09:39:41;;;;;;;3.30;1.27;;;;;;;;;;5065186;28;20440;-82
2022/11/01 09:42:14;;;;;;;2.63;1.50;;;;;;;;;;5059654;28;20444;-81
2022/11/01 09:44:43;;;;;;;4.00;1.53;;;;;;;;;;5054316;28;20474;-80
2022/11/01 09:47:17;;;;;;;7.70;1.37;;;;;;;;;;5063634;28;20774;-81
2022/11/01 09:49:46;;;;;;;2.20;1.57;;;;;;;;;;5040136;28;20483;-81
2022/11/01 09:52:19;;;;;;;2.83;1.20;;;;;;;;;;5065230;28;20476;-81
2022/11/01 09:54:46;;;;;;;1.50;1.40;;;;;;;;;;5061062;28;20425;-78
2022/11/01 09:57:12;;;;;;;2.30;1.63;;;;;;;;;;5069762;28;20965;-81
2022/11/01 09:59:45;;;;;;;5.00;1.33;;;;;;;;;;5069075;28;20506;-83
2022/11/01 10:02:25;;;;;;;1.80;1.30;;;;;;;;;;5049184;28;20784;-79
2022/11/01 10:05:09;;;;;;;4.53;1.17;;;;;;;;;;5046983;28;20765;-81
2022/11/01 10:07:44;;;;;;;3.47;1.67;;;;;;;;;;5068456;28;20519;-80
2022/11/01 10:10:29;;;;;;;2.20;1.60;;;;;;;;;;5050655;28;20440;-80
2022/11/01 10:13:03;;;;;;;2.37;1.90;;;;;;;;;;5069010;28;21062;-81
2022/11/01 10:15:44;;;;;;;1.63;1.33;;;;;;;;;;5033261;28;20493;-80
2022/11/01 10:18:26;;;;;;;2.70;0.97;;;;;;;;;;5047766;28;20488;-82
2022/11/01 10:20:52;;;;;;;6.63;1.70;;;;;;;;;;5047312;28;20448;-82
2022/11/01 10:23:30;;;;;;;5.63;1.30;;;;;;;;;;5048593;28;20405;-79
2022/11/01 10:25:57;;;;;;;2.83;1.27;;;;;;;;;;5037055;28;20433;-80
2022/11/01 10:28:28;;;;;;;5.70;1.70;;;;;;;;;;5048632;28;20643;-81
2022/11/01 10:30:56;;;;;;;3.63;1.27;;;;;;;;;;5027261;28;20451;-79
2022/11/01 10:33:29;;;;;;;1.10;1.10;;;;;;;;;;5048200;28;20457;-80
2022/11/01 10:36:04;;;;;;;2.20;1.90;;;;;;;;;;5036496;28;20507;-81
2022/11/01 10:38:40;;;;;;;3.37;1.07;;;;;;;;;;5028783;28;20453;-80
2022/11/01 10:41:09;;;;;;;2.10;1.20;;;;;;;;;;5035375;28;20426;-81
2022/11/01 10:43:38;;;;;;;3.97;1.90;;;;;;;;;;5030292;28;20434;-80
2022/11/01 10:46:06;;;;;;;1.47;1.37;;;;;;;;;;5026519;28;20445;-79
2022/11/01 10:48:34;;;;;;;3.70;1.50;;;;;;;;;;5047988;28;20449;-79
2022/11/01 10:51:02;;;;;;;2.77;1.07;;;;;;;;;;5027156;28;20445;-81
2022/11/01 10:53:32;;;;;;;3.17;1.53;;;;;;;;;;5047917;28;20934;-80
2022/11/01 10:56:04;;;;;;;7.07;1.60;;;;;;;;;;5036350;28;20444;-80
2022/11/01 10:58:40;;;;;;;2.30;1.27;;;;;;;;;;5028485;28;20407;-80
2022/11/01 11:01:07;;;;;;;1.57;1.30;;;;;;;;;;5039551;28;20421;-80
2022/11/01 11:03:33;;;;;;;2.30;1.33;;;;;;;;;;5047769;28;20437;-81
2022/11/01 11:06:00;;;;;;;4.43;1.50;;;;;;;;;;5046908;28;20430;-79
2022/11/01 11:08:27;;;;;;;4.33;1.10;;;;;;;;;;5028162;28;20430;-80
2022/11/01 11:10:56;;;;;;;5.20;1.70;;;;;;;;;;5045304;28;20976;-80
2022/11/01 11:13:23;;;;;;;4.03;1.20;;;;;;;;;;5027563;28;20884;-80
2022/11/01 11:15:53;;;;;;;3.10;1.43;;;;;;;;;;5062784;28;20489;-80
2022/11/01 11:18:30;;;;;;;4.70;1.63;;;;;;;;;;5048075;28;20458;-81
2022/11/01 11:20:59;;;;;;;7.50;1.57;;;;;;;;;;5064419;28;20512;-81
2022/11/01 11:23:26;;;;;;;1.90;1.53;;;;;;;;;;5067383;28;20460;-79
2022/11/01 11:25:52;;;;;;;3.37;1.80;;;;;;;;;;5066057;28;20715;-80
2022/11/01 11:28:24;;;;;;;2.37;0.90;;;;;;;;;;5047996;28;20820;-80
2022/11/01 11:30:50;;;;;;;3.73;1.30;;;;;;;;;;5065613;28;20433;-79
2022/11/01 11:33:17;;;;;;;3.50;1.30;;;;;;;;;;5067286;28;20457;-80
2022/11/01 11:35:52;;;;;;;1.93;1.43;;;;;;;;;;5065313;28;20988;-79
2022/11/01 11:38:18;;;;;;;3.03;2.40;;;;;;;;;;5046794;28;20417;-81
2022/11/01 11:40:47;;;;;;;1.97;1.70;;;;;;;;;;5065173;28;20433;-80
2022/11/01 11:43:32;;;;;;;3.83;1.63;;;;;;;;;;5047559;28;20424;-80
2022/11/01 11:46:07;;;;;;;2.33;1.30;;;;;;;;;;5065207;28;20441;-81
2022/11/01 11:48:33;;;;;;;4.10;1.50;;;;;;;;;;5047370;28;20960;-83
2022/11/01 11:51:04;;;;;;;2.63;1.50;;;;;;;;;;5067044;28;20977;-80
2022/11/01 11:53:32;;;;;;;4.63;1.20;;;;;;;;;;5048536;28;20470;-82
2022/11/01 11:56:00;;;;;;;1.90;1.57;;;;;;;;;;5064374;28;20436;-80
2022/11/01 11:58:28;;;;;;;3.17;1.13;;;;;;;;;;5046734;28;20426;-80
2022/11/01 12:00:59;;;;;;;5.83;1.97;;;;;;;;;;5064205;28;20455;-80
2022/11/01 12:03:25;;;;;;;7.37;1.60;;;;;;;;;;5046842;28;20808;-78
2022/11/01 12:05:59;;;;;;;2.57;2.20;;;;;;;;;;5065071;28;20429;-81
2022/11/01 12:08:33;;;;;;;2.67;1.40;;;;;;;;;;5047761;28;20433;-80
2022/11/01 12:10:59;;;;;;;3.23;1.70;;;;;;;;;;5058768;28;20441;-78
2022/11/01 12:13:31;;;;;;;1.70;1.30;;;;;;;;;;5051436;28;20453;-82
2022/11/01 12:16:09;;;;;;;2.10;1.23;;;;;;;;;;5057374;28;20445;-79
2022/11/01 12:18:44;;;;;;;2.93;1.53;;;;;;;;;;5047817;28;20433;-79
2022/11/01 12:21:15;;;;;;;1.90;1.37;;;;;;;;;;5044062;28;20979;-81
2022/11/01 12:23:41;;;;;;;4.07;1.40;;;;;;;;;;5048350;28;20922;-80
2022/11/01 12:26:09;;;;;;;4.83;1.90;;;;;;;;;;5065586;28;20745;-81
2022/11/01 12:28:38;;;;;;;2.90;1.80;;;;;;;;;;5046396;28;21319;-80
2022/11/01 12:31:09;;;;;;;5.80;1.17;;;;;;;;;;5065416;28;20401;-78
2022/11/01 12:33:38;;;;;;;2.60;1.57;;;;;;;;;;5063190;28;20903;-78
2022/11/01 12:36:06;;;;;;;1.97;1.70;;;;;;;;;;5064888;28;20502;-80
2022/11/01 12:38:32;;;;;;;6.80;1.27;;;;;;;;;;5062537;28;20428;-79
2022/11/01 12:41:03;;;;;;;4.00;1.43;;;;;;;;;;5065673;28;20508;-81
2022/11/01 12:43:58;;;;;;;2.97;2.30;;;;;;;;;;5045708;28;20831;-79
2022/11/01 12:46:37;;;;;;;9.00;2.67;;;;;;;;;;4993525;28;20456;-79
2022/11/01 12:49:06;;;;;;;3.40;1.47;;;;;;;;;;5064725;28;20933;-79
2022/11/01 12:51:35;;;;;;;2.37;1.30;;;;;;;;;;5045882;28;20520;-80
2022/11/01 12:54:07;;;;;;;2.57;2.33;;;;;;;;;;5042467;28;20520;-81
2022/11/01 12:56:33;;;;;;;2.27;1.53;;;;;;;;;;5046560;28;20412;-78
2022/11/01 12:58:59;;;;;;;3.20;1.83;;;;;;;;;;4358823;28;10000635;-80
2022/11/01 13:01:40;;;;;;;7.47;1.77;;;;;;;;;;5065423;28;20262;-79
2022/11/01 13:04:11;;;;;;;8.60;1.90;;;;;;;;;;5050103;28;20524;-81
2022/11/01 13:06:37;;;;;;;5.17;1.93;;;;;;;;;;5060073;28;20730;-80
2022/11/01 13:09:06;;;;;;;3.90;2.70;;;;;;;;;;5060589;28;20801;-80
2022/11/01 13:11:45;;;;;;;2.03;1.67;;;;;;;;;;5068633;28;20492;-80
2022/11/01 13:14:19;;;;;;;1.70;1.40;;;;;;;;;;5046163;28;20507;-80
2022/11/01 13:16:48;;;;;;;2.40;1.10;;;;;;;;;;5052800;28;20439;-79
2022/11/01 13:19:14;;;;;;;1.57;1.27;;;;;;;;;;5058391;28;20476;-81
2022/11/01 13:21:53;;;;;;;9.13;6.17;;;;;;;;;;5068039;28;20926;-79
2022/11/01 13:24:28;;;;;;;3.43;1.93;;;;;;;;;;5051071;28;20461;-80
2022/11/01 13:27:05;;;;;;;2.30;1.40;;;;;;;;;;5053312;28;20476;-80
2022/11/01 13:29:31;;;;;;;1.40;1.10;;;;;;;;;;5057574;28;20885;-79
2022/11/01 13:32:01;;;;;;;3.77;1.20;;;;;;;;;;5040716;28;20420;-79
2022/11/01 13:34:48;;;;;;;4.30;2.30;;;;;;;;;;5056483;28;20472;-80
2022/11/01 13:37:14;;;;;;;3.13;1.57;;;;;;;;;;5049207;28;20432;-80
2022/11/01 13:39:59;;;;;;;2.10;1.37;;;;;;;;;;5068127;28;20420;-80
2022/11/01 13:42:30;;;;;;;8.03;1.80;;;;;;;;;;5059500;28;20436;-79
2022/11/01 13:45:16;;;;;;;4.70;1.60;;;;;;;;;;5059073;28;20424;-79
2022/11/01 13:47:54;;;;;;;1.97;1.80;;;;;;;;;;5058101;28;20844;-79
2022/11/01 13:50:20;;;;;;;1.83;1.43;;;;;;;;;;5060283;28;20425;-78
2022/11/01 13:53:04;;;;;;;3.37;1.83;;;;;;;;;;5060073;28;20473;-79
2022/11/01 13:55:56;;;;;;;4.80;1.97;;;;;;;;;;5055830;28;20446;-79
2022/11/01 13:58:23;;;;;;;2.63;1.20;;;;;;;;;;5044937;28;20495;-81
2022/11/01 14:00:50;;;;;;;3.70;1.70;;;;;;;;;;5050648;28;20846;-80
2022/11/01 14:03:28;;;;;;;7.37;1.70;;;;;;;;;;5043752;28;20819;-82
2022/11/01 14:06:14;;;;;;;0.97;0.97;;;;;;;;;;5059629;28;21041;-80
2022/11/01 14:08:48;;;;;;;4.80;1.60;;;;;;;;;;5044914;28;20448;-81
2022/11/01 14:11:34;;;;;;;2.87;0.97;;;;;;;;;;5049695;28;20441;-83
2022/11/01 14:14:00;;;;;;;1.23;1.13;;;;;;;;;;5045453;28;21065;-78
2022/11/01 14:16:27;;;;;;;1.90;1.47;;;;;;;;;;5051275;28;21111;-80
2022/11/01 14:19:02;;;;;;;2.10;1.13;;;;;;;;;;5033326;28;20445;-80
2022/11/01 14:21:30;;;;;;;2.90;1.60;;;;;;;;;;5058923;28;20947;-82
2022/11/01 14:24:01;;;;;;;3.00;1.90;;;;;;;;;;5049424;28;20900;-78
2022/11/01 14:26:37;;;;;;;4.87;1.80;;;;;;;;;;5060673;28;20569;-79
2022/11/01 14:29:07;;;;;;;1.43;1.43;;;;;;;;;;5060907;28;20447;-80
2022/11/01 14:31:35;;;;;;;6.13;2.27;;;;;;;;;;5051571;28;20427;-80
2022/11/01 14:34:05;;;;;;;1.93;1.20;;;;;;;;;;5043645;28;20477;-79
2022/11/01 14:36:40;;;;;;;3.53;1.47;;;;;;;;;;5065444;28;20423;-82
2022/11/01 14:41:37;;;;;;;2.73;1.63;;;;;;;;;;5075331;22;20493;-79
2022/11/01 14:44:10;;;;;;;1.97;1.83;;;;;;;;;;5024263;28;20915;-80
2022/11/01 14:46:38;;;;;;;3.20;1.77;;;;;;;;;;5031168;28;20690;-81
2022/11/01 14:49:07;;;;;;;6.30;1.90;;;;;;;;;;5046506;28;20737;-79
2022/11/01 14:51:46;;;;;;;1.50;1.40;;;;;;;;;;5043650;28;20468;-80
2022/11/01 14:54:12;;;;;;;2.10;1.50;;;;;;;;;;5044662;28;20834;-80
2022/11/01 14:56:38;;;;;;;4.20;1.43;;;;;;;;;;5043417;28;20444;-80
2022/11/01 14:59:11;;;;;;;3.37;1.50;;;;;;;;;;5044490;28;20525;-79
2022/11/01 15:01:43;;;;;;;3.80;1.87;;;;;;;;;;5043846;28;20453;-79
2022/11/01 15:04:19;;;;;;;2.73;1.33;;;;;;;;;;5043733;28;20428;-79
2022/11/01 15:06:45;;;;;;;3.90;1.90;;;;;;;;;;5026657;28;20399;-80